createdAt,value
2023-05-18T00:01:32.317Z,4.70
2023-05-18T00:04:29.659Z,4.80
2023-05-18T00:07:26.632Z,4.70
2023-05-18T00:10:23.518Z,4.70
2023-05-18T00:13:20.562Z,4.60
2023-05-18T00:16:17.478Z,4.60
2023-05-18T00:19:15.664Z,4.70
2023-05-18T00:22:18.082Z,4.60
2023-05-18T00:25:14.948Z,4.50
2023-05-18T00:28:12.752Z,4.50
2023-05-18T00:31:09.623Z,4.40
2023-05-18T00:34:14.986Z,4.40
2023-05-18T00:37:11.849Z,4.40
2023-05-18T00:40:10.501Z,4.30
2023-05-18T00:43:08.489Z,4.40
2023-05-18T00:46:05.571Z,4.40
2023-05-18T00:49:02.879Z,4.30
2023-05-18T00:52:02.728Z,4.40
2023-05-18T00:55:00.250Z,4.40
2023-05-18T00:57:57.394Z,4.50
2023-05-18T01:00:54.422Z,4.50
2023-05-18T01:03:56.626Z,4.50
2023-05-18T01:06:56.520Z,4.70
2023-05-18T01:09:54.550Z,4.60
2023-05-18T01:13:05.578Z,4.60
2023-05-18T01:16:09.795Z,4.60
2023-05-18T01:19:55.558Z,4.70
2023-05-18T01:23:10.179Z,4.90
2023-05-18T01:26:15.927Z,4.80
2023-05-18T01:29:15.461Z,4.80
2023-05-18T01:32:22.180Z,4.80
2023-05-18T01:35:19.061Z,4.70
2023-05-18T01:38:22.471Z,4.70
2023-05-18T01:41:24.886Z,4.70
2023-05-18T01:44:36.572Z,4.70
2023-05-18T01:47:35.575Z,4.90
2023-05-18T01:50:39.968Z,5.10
2023-05-18T01:53:44.909Z,4.90
2023-05-18T01:56:43.569Z,5.00
2023-05-18T01:59:41.869Z,5.00
2023-05-18T02:02:38.905Z,4.90
2023-05-18T02:05:35.871Z,4.80
2023-05-18T02:08:33.652Z,4.70
2023-05-18T02:11:30.992Z,4.90
2023-05-18T02:14:27.954Z,4.90
2023-05-18T02:17:26.328Z,4.90
2023-05-18T02:20:23.249Z,4.90
2023-05-18T02:23:20.092Z,4.80
2023-05-18T02:26:16.941Z,4.80
2023-05-18T02:29:14.691Z,4.80
2023-05-18T02:32:11.685Z,4.90
2023-05-18T02:35:10.193Z,5.00
2023-05-18T02:38:07.442Z,5.10
2023-05-18T02:41:04.424Z,5.10
2023-05-18T02:44:02.936Z,5.00
2023-05-18T02:46:59.801Z,5.00
2023-05-18T02:49:56.680Z,5.00
2023-05-18T02:52:53.519Z,4.90
2023-05-18T02:55:56.978Z,5.00
2023-05-18T02:58:58.249Z,5.00
2023-05-18T03:01:55.950Z,5.10
2023-05-18T03:04:54.221Z,5.10
2023-05-18T03:07:52.272Z,4.80
2023-05-18T03:10:50.258Z,4.80
2023-05-18T03:13:47.799Z,4.70
2023-05-18T03:16:45.130Z,4.60
2023-05-18T03:19:42.052Z,4.70
2023-05-18T03:22:38.902Z,4.70
2023-05-18T03:25:37.361Z,4.70
2023-05-18T03:28:34.256Z,4.70
2023-05-18T03:31:31.443Z,4.70
2023-05-18T03:34:28.425Z,4.70
2023-05-18T03:37:25.443Z,4.70
2023-05-18T03:40:22.565Z,4.70
2023-05-18T03:43:19.408Z,4.80
2023-05-18T03:46:16.374Z,4.80
2023-05-18T03:49:13.245Z,4.90
2023-05-18T03:52:10.280Z,5.00
2023-05-18T03:55:07.467Z,4.90
2023-05-18T03:58:04.336Z,4.90
2023-05-18T04:01:01.585Z,5.00
2023-05-18T04:03:59.483Z,4.90
2023-05-18T04:06:56.432Z,5.10
2023-05-18T04:09:56.148Z,5.10
2023-05-18T04:12:53.069Z,5.10
2023-05-18T04:15:49.966Z,5.10
2023-05-18T04:18:46.905Z,5.20
2023-05-18T04:21:43.852Z,5.20
2023-05-18T04:24:45.723Z,5.20
2023-05-18T04:27:45.479Z,5.30
2023-05-18T04:30:42.677Z,5.30
2023-05-18T04:33:40.391Z,5.40
2023-05-18T04:36:42.600Z,5.40
2023-05-18T04:39:39.660Z,5.30
2023-05-18T04:42:36.583Z,5.50
2023-05-18T04:45:34.359Z,5.60
2023-05-18T04:48:32.077Z,5.60
2023-05-18T04:51:29.075Z,5.70
2023-05-18T04:54:28.385Z,5.80
2023-05-18T04:57:25.388Z,5.90
2023-05-18T05:00:27.971Z,6.00
2023-05-18T05:03:24.941Z,6.00
2023-05-18T05:06:21.874Z,6.10
2023-05-18T05:09:18.780Z,6.20
2023-05-18T05:12:15.870Z,6.20
2023-05-18T05:15:12.927Z,6.30
2023-05-18T05:18:09.864Z,6.30
2023-05-18T05:21:06.785Z,6.30
2023-05-18T05:24:06.034Z,6.40
2023-05-18T05:27:02.898Z,6.50
2023-05-18T05:29:59.835Z,6.50
2023-05-18T05:32:56.726Z,6.60
2023-05-18T05:35:53.929Z,6.70
2023-05-18T05:38:50.866Z,6.70
2023-05-18T05:41:47.756Z,6.80
2023-05-18T05:44:44.685Z,6.90
2023-05-18T05:47:41.598Z,7.00
2023-05-18T05:50:38.542Z,7.10
2023-05-18T05:53:35.402Z,7.10
2023-05-18T05:56:32.318Z,7.20
2023-05-18T05:59:29.322Z,7.30
2023-05-18T06:02:26.382Z,7.40
2023-05-18T06:05:23.433Z,7.50
2023-05-18T06:08:20.702Z,7.50
2023-05-18T06:11:18.029Z,7.60
2023-05-18T06:14:14.912Z,7.70
2023-05-18T06:17:12.000Z,7.80
2023-05-18T06:20:09.290Z,7.80
2023-05-18T06:23:06.267Z,7.90
2023-05-18T06:26:03.201Z,7.90
2023-05-18T06:29:00.150Z,7.90
2023-05-18T06:31:57.819Z,8.00
2023-05-18T06:34:54.720Z,8.10
2023-05-18T06:37:51.619Z,8.20
2023-05-18T06:40:48.507Z,8.20
2023-05-18T06:43:45.623Z,8.20
2023-05-18T06:46:42.612Z,8.30
2023-05-18T06:49:39.701Z,8.40
2023-05-18T06:52:36.602Z,8.50
2023-05-18T06:55:33.650Z,8.60
2023-05-18T06:58:30.662Z,8.70
2023-05-18T07:01:27.813Z,8.80
2023-05-18T07:04:24.773Z,9.00
2023-05-18T07:07:22.203Z,9.20
2023-05-18T07:10:19.128Z,9.40
2023-05-18T07:13:16.024Z,9.50
2023-05-18T07:16:12.931Z,9.60
2023-05-18T07:19:09.899Z,9.70
2023-05-18T07:22:07.705Z,9.90
2023-05-18T07:25:05.701Z,10.00
2023-05-18T07:28:02.539Z,10.10
2023-05-18T07:30:59.567Z,10.50
2023-05-18T07:33:56.504Z,10.50
2023-05-18T07:36:53.998Z,10.50
2023-05-18T07:39:51.234Z,10.60
2023-05-18T07:42:48.084Z,10.70
2023-05-18T07:45:44.920Z,10.90
2023-05-18T07:48:41.840Z,11.20
2023-05-18T07:51:38.749Z,11.30
2023-05-18T07:54:35.902Z,11.20
2023-05-18T07:57:34.363Z,11.30
2023-05-18T08:00:31.658Z,11.40
2023-05-18T08:03:28.699Z,11.60
2023-05-18T08:06:25.635Z,11.90
2023-05-18T08:09:22.480Z,12.00
2023-05-18T08:12:19.384Z,12.30
2023-05-18T08:15:16.217Z,12.50
2023-05-18T08:18:13.089Z,13.00
2023-05-18T08:21:10.689Z,13.50
2023-05-18T08:24:09.911Z,13.90
2023-05-18T08:27:09.783Z,14.20
2023-05-18T08:30:08.174Z,14.90
2023-05-18T08:33:05.055Z,15.20
2023-05-18T08:36:01.951Z,15.10
2023-05-18T08:38:59.018Z,15.40
2023-05-18T08:42:16.400Z,15.30
2023-05-18T08:45:23.548Z,15.60
2023-05-18T08:48:25.710Z,15.00
2023-05-18T08:51:25.256Z,15.10
2023-05-18T08:54:23.465Z,14.80
2023-05-18T08:57:23.484Z,14.30
2023-05-18T09:00:22.935Z,13.70
2023-05-18T09:03:21.841Z,13.70
2023-05-18T09:06:23.987Z,14.30
2023-05-18T09:09:23.595Z,15.20
2023-05-18T09:12:24.442Z,15.60
2023-05-18T09:15:21.987Z,16.30
2023-05-18T09:18:19.475Z,16.60
2023-05-18T09:21:17.766Z,15.70
2023-05-18T09:24:15.347Z,14.90
2023-05-18T09:27:12.201Z,14.40
2023-05-18T09:30:11.658Z,14.90
2023-05-18T09:33:21.927Z,15.80
2023-05-18T09:36:26.324Z,16.60
2023-05-18T09:39:23.275Z,17.00
2023-05-18T09:42:21.669Z,16.80
2023-05-18T09:45:25.613Z,16.40
2023-05-18T09:48:25.200Z,16.50
2023-05-18T09:51:25.226Z,16.00
2023-05-18T09:54:24.432Z,16.30
2023-05-18T09:57:21.939Z,16.50
2023-05-18T10:00:22.302Z,17.20
2023-05-18T10:03:24.980Z,17.20
2023-05-18T10:06:27.585Z,17.30
2023-05-18T10:09:24.509Z,17.70
2023-05-18T10:12:26.104Z,17.30
2023-05-18T10:15:24.483Z,17.40
2023-05-18T10:18:34.322Z,17.80
2023-05-18T10:21:33.951Z,18.10
2023-05-18T10:24:39.488Z,18.30
2023-05-18T10:27:36.952Z,18.10
2023-05-18T10:30:35.240Z,18.20
2023-05-18T10:33:36.453Z,18.10
2023-05-18T10:36:35.935Z,17.70
2023-05-18T10:39:37.266Z,16.40
2023-05-18T10:42:35.023Z,15.90
2023-05-18T10:45:37.228Z,17.30
2023-05-18T10:48:40.440Z,18.00
2023-05-18T10:51:38.919Z,18.20
2023-05-18T10:54:36.890Z,17.00
2023-05-18T10:58:00.947Z,16.80
2023-05-18T11:01:03.169Z,16.80
2023-05-18T11:04:06.495Z,17.70
2023-05-18T11:07:03.719Z,16.90
2023-05-18T11:10:10.848Z,17.00
2023-05-18T11:13:11.090Z,17.50
2023-05-18T11:16:09.080Z,18.10
2023-05-18T11:19:12.253Z,17.50
2023-05-18T11:22:12.736Z,16.90
2023-05-18T11:25:10.125Z,17.00
2023-05-18T11:28:11.706Z,17.90
2023-05-18T11:31:17.490Z,18.80
2023-05-18T11:34:46.598Z,18.10
2023-05-18T11:37:44.868Z,18.00
2023-05-18T11:40:50.212Z,17.80
2023-05-18T11:44:10.144Z,17.70
2023-05-18T11:47:11.454Z,18.80
2023-05-18T11:50:12.169Z,18.60
2023-05-18T11:53:15.030Z,18.20
2023-05-18T11:56:12.941Z,18.50
2023-05-18T11:59:14.296Z,18.40
2023-05-18T12:02:13.763Z,18.80
2023-05-18T12:05:11.093Z,18.60
2023-05-18T12:08:09.791Z,19.00
2023-05-18T12:11:07.553Z,18.60
2023-05-18T12:14:06.014Z,18.20
2023-05-18T12:17:03.164Z,18.60
2023-05-18T12:20:00.263Z,18.60
2023-05-18T12:22:58.785Z,17.90
2023-05-18T12:25:56.158Z,17.90
2023-05-18T12:28:53.411Z,18.10
2023-05-18T12:31:50.443Z,18.30
2023-05-18T12:34:47.377Z,18.80
2023-05-18T12:37:46.259Z,19.30
2023-05-18T12:40:48.692Z,19.70
2023-05-18T12:43:45.698Z,19.30
2023-05-18T12:46:45.809Z,20.40
2023-05-18T12:49:50.205Z,19.90
2023-05-18T12:52:51.886Z,19.40
2023-05-18T12:55:59.606Z,18.70
2023-05-18T12:59:02.987Z,19.00
2023-05-18T13:02:00.017Z,19.20
2023-05-18T13:05:11.083Z,19.90
2023-05-18T13:08:08.503Z,20.50
2023-05-18T13:11:14.471Z,19.80
2023-05-18T13:14:11.878Z,19.80
2023-05-18T13:17:08.743Z,20.10
2023-05-18T13:20:14.680Z,20.00
2023-05-18T13:23:14.173Z,19.30
2023-05-18T13:26:11.134Z,20.40
2023-05-18T13:29:08.657Z,19.20
2023-05-18T13:32:06.091Z,19.90
2023-05-18T13:35:03.316Z,20.40
2023-05-18T13:38:00.197Z,19.50
2023-05-18T13:40:57.034Z,18.70
2023-05-18T13:43:53.921Z,18.20
2023-05-18T13:46:50.796Z,17.90
2023-05-18T13:49:47.618Z,17.40
2023-05-18T13:52:46.312Z,18.40
2023-05-18T13:55:43.159Z,18.20
2023-05-18T13:58:40.052Z,18.00
2023-05-18T14:01:36.977Z,18.40
2023-05-18T14:04:33.826Z,18.20
2023-05-18T14:07:30.912Z,18.00
2023-05-18T14:10:27.801Z,18.00
2023-05-18T14:13:24.650Z,17.90
2023-05-18T14:16:21.571Z,18.00
2023-05-18T14:19:18.571Z,18.20
2023-05-18T14:22:16.555Z,18.30
2023-05-18T14:25:13.457Z,18.50
2023-05-18T14:28:10.427Z,17.60
2023-05-18T14:31:07.336Z,17.50
2023-05-18T14:34:04.226Z,18.00
2023-05-18T14:37:01.112Z,18.00
2023-05-18T14:39:57.996Z,17.80
2023-05-18T14:42:54.878Z,18.10
2023-05-18T14:46:04.287Z,17.90
2023-05-18T14:49:05.489Z,17.00
2023-05-18T14:52:02.332Z,17.70
2023-05-18T14:54:59.208Z,17.60
2023-05-18T14:57:56.087Z,18.30
2023-05-18T15:00:52.915Z,18.40
2023-05-18T15:03:49.963Z,19.20
2023-05-18T15:06:47.673Z,19.10
2023-05-18T15:09:44.522Z,19.30
2023-05-18T15:12:41.401Z,19.70
2023-05-18T15:15:38.279Z,17.40
2023-05-18T15:18:35.614Z,17.60
2023-05-18T15:21:32.491Z,18.40
2023-05-18T15:24:29.433Z,17.50
2023-05-18T15:27:26.479Z,17.00
2023-05-18T15:30:23.453Z,17.40
2023-05-18T15:33:20.366Z,17.00
2023-05-18T15:36:17.424Z,17.50
2023-05-18T15:39:14.538Z,17.90
2023-05-18T15:42:11.865Z,18.20
2023-05-18T15:45:09.584Z,18.40
2023-05-18T15:48:06.671Z,18.20
2023-05-18T15:51:03.730Z,18.80
2023-05-18T15:54:01.622Z,18.80
2023-05-18T15:56:58.477Z,19.30
2023-05-18T15:59:55.405Z,19.00
2023-05-18T16:02:52.317Z,18.30
2023-05-18T16:05:50.199Z,17.20
2023-05-18T16:08:47.102Z,16.80
2023-05-18T16:11:43.927Z,17.00
2023-05-18T16:14:40.815Z,16.90
2023-05-18T16:17:37.755Z,16.40
2023-05-18T16:20:34.919Z,15.90
2023-05-18T16:23:31.975Z,16.10
2023-05-18T16:26:28.886Z,15.90
2023-05-18T16:29:25.729Z,15.70
2023-05-18T16:32:22.687Z,15.70
2023-05-18T16:35:19.629Z,15.70
2023-05-18T16:38:16.809Z,15.50
2023-05-18T16:41:14.784Z,15.70
2023-05-18T16:44:11.650Z,15.10
2023-05-18T16:47:08.501Z,15.10
2023-05-18T16:50:06.542Z,15.30
2023-05-18T16:53:04.517Z,14.90
2023-05-18T16:56:02.917Z,15.10
2023-05-18T16:58:59.758Z,15.30
2023-05-18T17:01:56.694Z,14.70
2023-05-18T17:04:53.577Z,14.80
2023-05-18T17:07:52.749Z,15.40
2023-05-18T17:10:49.633Z,14.50
2023-05-18T17:13:46.538Z,15.00
2023-05-18T17:16:43.388Z,15.20
2023-05-18T17:19:41.479Z,15.10
2023-05-18T17:22:38.427Z,14.40
2023-05-18T17:25:35.356Z,14.20
2023-05-18T17:28:32.223Z,14.70
2023-05-18T17:31:29.182Z,14.40
2023-05-18T17:34:26.961Z,14.30
2023-05-18T17:37:23.874Z,14.50
2023-05-18T17:40:21.069Z,14.60
2023-05-18T17:43:17.906Z,14.50
2023-05-18T17:46:14.765Z,13.90
2023-05-18T17:49:14.839Z,13.90
2023-05-18T17:52:12.465Z,14.10
2023-05-18T17:55:09.731Z,14.00
2023-05-18T17:58:06.630Z,13.40
2023-05-18T18:01:03.993Z,13.20
2023-05-18T18:04:00.979Z,13.20
2023-05-18T18:06:58.489Z,13.50
2023-05-18T18:09:55.372Z,13.20
2023-05-18T18:12:52.327Z,12.90
2023-05-18T18:15:49.408Z,12.80
2023-05-18T18:18:46.839Z,12.70
2023-05-18T18:21:43.722Z,12.50
2023-05-18T18:24:40.579Z,12.30
2023-05-18T18:27:37.419Z,12.50
2023-05-18T18:30:34.473Z,12.60
2023-05-18T18:33:32.744Z,12.40
2023-05-18T18:36:29.872Z,12.80
2023-05-18T18:39:26.936Z,12.70
2023-05-18T18:42:23.798Z,12.50
2023-05-18T18:45:20.651Z,12.50
2023-05-18T18:48:21.055Z,12.60
2023-05-18T18:51:17.873Z,12.30
2023-05-18T18:54:14.779Z,12.20
2023-05-18T18:57:12.159Z,12.10
2023-05-18T19:00:13.644Z,12.20
2023-05-18T19:03:10.794Z,11.90
2023-05-18T19:06:07.811Z,11.80
2023-05-18T19:09:04.730Z,11.80
2023-05-18T19:12:02.103Z,11.50
2023-05-18T19:14:59.116Z,11.70
2023-05-18T19:17:56.129Z,11.60
2023-05-18T19:20:52.987Z,11.50
2023-05-18T19:23:49.854Z,11.50
2023-05-18T19:26:46.708Z,11.70
2023-05-18T19:29:43.537Z,11.60
2023-05-18T19:32:40.817Z,11.70
2023-05-18T19:35:37.722Z,11.60
2023-05-18T19:38:34.554Z,11.40
2023-05-18T19:41:31.429Z,11.30
2023-05-18T19:44:28.288Z,11.30
2023-05-18T19:47:25.842Z,11.20
2023-05-18T19:50:22.787Z,11.40
2023-05-18T19:53:19.635Z,11.60
2023-05-18T19:56:16.473Z,11.70
2023-05-18T19:59:13.454Z,11.80
2023-05-18T20:02:10.421Z,11.40
2023-05-18T20:05:09.393Z,11.40
2023-05-18T20:08:07.549Z,11.40
2023-05-18T20:11:04.431Z,11.40
2023-05-18T20:14:01.372Z,11.40
2023-05-18T20:16:59.390Z,11.40
2023-05-18T20:19:56.290Z,11.10
2023-05-18T20:22:53.126Z,11.10
2023-05-18T20:25:50.098Z,11.20
2023-05-18T20:28:46.965Z,11.10
2023-05-18T20:31:43.867Z,11.00
2023-05-18T20:34:41.423Z,10.90
2023-05-18T20:37:41.393Z,10.80
2023-05-18T20:40:38.810Z,10.70
2023-05-18T20:43:37.716Z,10.80
2023-05-18T20:46:34.722Z,11.00
2023-05-18T20:49:31.933Z,11.10
2023-05-18T20:52:29.239Z,11.00
2023-05-18T20:55:26.438Z,11.00
2023-05-18T20:58:23.285Z,10.90
2023-05-18T21:01:20.974Z,11.00
2023-05-18T21:07:16.501Z,10.80
2023-05-18T21:10:13.406Z,10.90
2023-05-18T21:13:10.798Z,10.70
2023-05-18T21:16:08.620Z,10.80
2023-05-18T21:19:05.780Z,10.80
2023-05-18T21:22:02.664Z,11.00
2023-05-18T21:24:59.651Z,10.90
2023-05-18T21:27:56.547Z,11.10
2023-05-18T21:30:54.586Z,11.20
2023-05-18T21:33:52.705Z,11.00
2023-05-18T21:36:49.925Z,10.70
2023-05-18T21:39:46.928Z,10.90
2023-05-18T21:42:45.837Z,10.90
2023-05-18T21:45:42.849Z,11.00
2023-05-18T21:48:39.695Z,10.90
2023-05-18T21:51:36.637Z,10.80
2023-05-18T21:54:35.332Z,10.70
2023-05-18T21:57:33.453Z,10.70
2023-05-18T22:00:30.655Z,10.60
2023-05-18T22:03:27.657Z,10.50
2023-05-18T22:06:24.592Z,10.60
2023-05-18T22:09:21.478Z,10.60
2023-05-18T22:12:19.105Z,10.60
2023-05-18T22:15:17.155Z,10.50
2023-05-18T22:18:14.835Z,10.40
2023-05-18T22:21:11.732Z,10.60
2023-05-18T22:24:08.621Z,10.60
2023-05-18T22:27:05.843Z,10.80
2023-05-18T22:30:04.744Z,10.80
2023-05-18T22:33:01.651Z,10.70
2023-05-18T22:35:58.545Z,10.70
2023-05-18T22:38:57.361Z,10.60
2023-05-18T22:41:54.187Z,10.60
2023-05-18T22:44:51.337Z,10.60
2023-05-18T22:47:48.968Z,10.60
2023-05-18T22:50:45.857Z,10.40
2023-05-18T22:53:42.706Z,10.20
2023-05-18T22:56:39.743Z,10.30
2023-05-18T22:59:37.524Z,10.50
2023-05-18T23:02:34.762Z,10.40
2023-05-18T23:05:32.742Z,10.30
2023-05-18T23:08:30.585Z,10.40
2023-05-18T23:11:28.517Z,10.50
2023-05-18T23:14:25.465Z,10.50
2023-05-18T23:17:22.793Z,10.50
2023-05-18T23:20:20.269Z,10.40
2023-05-18T23:23:17.126Z,10.40
2023-05-18T23:26:14.097Z,10.30
2023-05-18T23:29:11.510Z,10.30
2023-05-18T23:32:08.846Z,10.30
2023-05-18T23:35:06.815Z,10.30
2023-05-18T23:38:07.226Z,10.00
2023-05-18T23:41:05.219Z,10.00
2023-05-18T23:44:02.496Z,10.00
2023-05-18T23:47:00.122Z,10.10
2023-05-18T23:49:57.518Z,10.00
2023-05-18T23:52:57.096Z,9.90
2023-05-18T23:55:54.376Z,10.00
2023-05-18T23:58:51.554Z,9.70
